createdAt,value
2023-03-29T14:01:07.475Z,10.4615
2023-03-29T14:02:08.663Z,4.7692
2023-03-29T14:03:09.833Z,6.0769
2023-03-29T14:04:11.093Z,0.0000
2023-03-29T14:05:12.318Z,0.0000
2023-03-29T14:06:13.546Z,0.0000
2023-03-29T14:07:14.812Z,0.0000
2023-03-29T14:08:19.401Z,0.0000
2023-03-29T14:09:20.931Z,3.2308
2023-03-29T14:10:22.423Z,8.6923
2023-03-29T14:11:24.481Z,3.9231
2023-03-29T14:12:25.653Z,3.7692
2023-03-29T14:13:27.036Z,2.9231
2023-03-29T14:14:28.553Z,5.4615
2023-03-29T14:15:30.049Z,3.6923
2023-03-29T14:16:31.815Z,4.6154
2023-03-29T14:17:33.133Z,9.9231
2023-03-29T14:18:34.802Z,10.4615
2023-03-29T14:19:36.128Z,8.9231
2023-03-29T14:21:58.808Z,3.7692
2023-03-29T14:23:00.047Z,11.8462
2023-03-29T14:24:01.282Z,13.4615
2023-03-29T14:25:02.477Z,21.5385
2023-03-29T14:26:03.972Z,19.6154
2023-03-29T14:27:04.989Z,7.5385
2023-03-29T14:28:06.234Z,7.7692
2023-03-29T14:29:07.445Z,6.6154
2023-03-29T14:30:07.600Z,11.1667
2023-03-29T14:32:04.573Z,2.5385
2023-03-29T14:33:05.787Z,4.8462
2023-03-29T14:34:06.958Z,7.0769
2023-03-29T14:35:10.401Z,5.6923
2023-03-29T14:36:12.064Z,11.2308
2023-03-29T14:37:13.475Z,10.3846
2023-03-29T14:38:14.927Z,5.3846
2023-03-29T14:39:17.847Z,14.3846
2023-03-29T14:40:19.120Z,15.6154
2023-03-29T14:41:21.998Z,26.0000
2023-03-29T14:42:21.575Z,25.6923
2023-03-29T14:43:22.746Z,10.1538
2023-03-29T14:44:24.076Z,3.8462
2023-03-29T14:45:25.566Z,5.6154
2023-03-29T14:46:27.197Z,6.2308
2023-03-29T14:47:28.650Z,18.0769
2023-03-29T14:48:30.137Z,9.5385
2023-03-29T14:49:31.702Z,31.2308
2023-03-29T14:50:33.196Z,26.7692
2023-03-29T14:51:34.694Z,0.1538
2023-03-29T14:52:36.239Z,0.0000
2023-03-29T14:53:37.762Z,0.0000
2023-03-29T14:54:39.242Z,0.0000
2023-03-29T14:55:40.799Z,0.0000
2023-03-29T14:56:42.308Z,0.0000
2023-03-29T14:57:43.852Z,0.0000
2023-03-29T14:58:45.316Z,0.0000
2023-03-29T14:59:46.854Z,0.0000
2023-03-29T15:00:48.399Z,1.4615
2023-03-29T15:01:50.010Z,12.7692
2023-03-29T15:02:51.536Z,20.0769
2023-03-29T15:03:54.712Z,19.6154
2023-03-29T15:04:54.461Z,14.4615
2023-03-29T15:05:56.003Z,16.7692
2023-03-29T15:06:57.510Z,12.3077
2023-03-29T15:07:59.025Z,5.1538
2023-03-29T15:09:06.161Z,7.6923
2023-03-29T15:10:04.418Z,7.5385
2023-03-29T15:11:05.694Z,8.8462
2023-03-29T15:12:06.925Z,7.7692
2023-03-29T15:13:08.181Z,4.6923
2023-03-29T15:14:09.433Z,5.6923
2023-03-29T15:15:10.629Z,10.3077
2023-03-29T15:16:12.075Z,5.6154
2023-03-29T15:17:13.122Z,10.6154
2023-03-29T15:18:14.441Z,15.0769
2023-03-29T15:19:15.725Z,8.8462
2023-03-29T15:20:17.260Z,17.3077
2023-03-29T15:21:18.794Z,18.2308
2023-03-29T15:22:20.275Z,9.2308
2023-03-29T15:23:21.854Z,10.0000
2023-03-29T15:24:23.368Z,5.5385
2023-03-29T15:25:24.877Z,9.1538
2023-03-29T15:26:26.394Z,4.4615
2023-03-29T15:27:27.928Z,10.1538
2023-03-29T15:28:29.487Z,13.0000
2023-03-29T15:29:30.936Z,10.5385
2023-03-29T15:30:33.982Z,8.1538
2023-03-29T15:31:35.245Z,8.1538
2023-03-29T15:32:36.465Z,4.6154
2023-03-29T15:33:37.922Z,2.4615
2023-03-29T15:34:38.930Z,9.5385
2023-03-29T15:35:40.160Z,10.9231
2023-03-29T15:36:41.703Z,5.7692
2023-03-29T15:37:43.136Z,6.4615
2023-03-29T15:38:45.508Z,4.2308
2023-03-29T15:39:46.180Z,3.9231
2023-03-29T15:40:47.763Z,5.0769
2023-03-29T15:41:49.287Z,2.5385
2023-03-29T15:42:50.760Z,16.4615
2023-03-29T15:43:52.268Z,11.6923
2023-03-29T15:44:53.809Z,8.8462
2023-03-29T15:45:55.330Z,3.0000
2023-03-29T15:46:56.875Z,11.5385
2023-03-29T15:47:59.735Z,11.6923
2023-03-29T15:49:01.015Z,6.6923
2023-03-29T15:50:02.198Z,15.6923
2023-03-29T15:51:06.534Z,2.5385
2023-03-29T15:52:04.677Z,6.6923
2023-03-29T15:53:15.149Z,6.7692
2023-03-29T15:54:07.584Z,9.0769
2023-03-29T15:55:08.998Z,3.6923
2023-03-29T15:56:10.562Z,14.8462
2023-03-29T15:57:12.482Z,14.6154
2023-03-29T15:58:13.665Z,5.0769
2023-03-29T15:59:18.129Z,13.5385
2023-03-29T16:00:19.350Z,2.2308
2023-03-29T16:01:20.574Z,6.8462
2023-03-29T16:02:21.854Z,5.6154
2023-03-29T16:03:23.089Z,5.4615
2023-03-29T16:04:24.291Z,6.9231
2023-03-29T16:05:25.546Z,10.5385
2023-03-29T16:06:26.786Z,9.0769
2023-03-29T16:07:27.980Z,7.6154
2023-03-29T16:08:29.232Z,9.6923
2023-03-29T16:09:30.554Z,6.3846
2023-03-29T16:10:31.798Z,9.0769
2023-03-29T16:11:33.332Z,7.6923
2023-03-29T16:12:34.830Z,5.8462
2023-03-29T16:13:36.509Z,5.2308
2023-03-29T16:14:37.928Z,6.2308
2023-03-29T16:15:39.421Z,4.4615
2023-03-29T16:16:40.969Z,9.3077
2023-03-29T16:17:42.511Z,18.7692
2023-03-29T16:18:43.943Z,10.9231
2023-03-29T16:19:45.542Z,10.9231
2023-03-29T16:20:46.991Z,7.6154
2023-03-29T16:21:48.558Z,12.8462
2023-03-29T16:22:50.031Z,9.6154
2023-03-29T16:23:51.580Z,9.5385
2023-03-29T16:24:53.141Z,17.2308
2023-03-29T16:25:54.633Z,23.5385
2023-03-29T16:26:56.486Z,27.5385
2023-03-29T16:27:57.671Z,20.5385
2023-03-29T16:28:59.165Z,21.6154
2023-03-29T16:30:00.736Z,23.5385
2023-03-29T16:31:02.212Z,24.5385
2023-03-29T16:32:06.265Z,38.2308
2023-03-29T17:45:53.497Z,5.0000
2023-03-29T17:46:54.801Z,2.9231
2023-03-29T17:47:56.045Z,12.8462
2023-03-29T17:48:57.204Z,0.3846
2023-03-29T17:52:32.756Z,4.4615
2023-03-29T17:53:34.018Z,20.6923
2023-03-29T17:54:35.231Z,19.0000
2023-03-29T17:55:36.481Z,34.6154
2023-03-29T17:56:37.710Z,32.4615
2023-03-29T17:57:39.424Z,36.6154
2023-03-29T17:58:40.168Z,19.6154
2023-03-29T17:59:41.473Z,19.8462
2023-03-29T18:00:46.195Z,14.0000
2023-03-29T18:01:48.646Z,3.6154
2023-03-29T18:02:44.656Z,10.9167
2023-03-29T18:03:46.132Z,11.3846
2023-03-29T18:04:47.612Z,14.5385
2023-03-29T18:05:49.126Z,8.6923
2023-03-29T18:06:50.654Z,16.1538
2023-03-29T18:07:52.199Z,21.3077
2023-03-29T18:08:53.714Z,15.5385
2023-03-29T18:09:55.236Z,23.6154
2023-03-29T18:10:56.752Z,14.3846
2023-03-29T18:11:58.283Z,33.0000
2023-03-29T18:12:59.953Z,52.5385
2023-03-29T18:14:01.327Z,68.6154
2023-03-29T18:15:02.858Z,70.0769
2023-03-29T18:16:04.560Z,72.2308
2023-03-29T18:17:05.900Z,65.0769
2023-03-29T18:18:08.740Z,98.5385
2023-03-29T18:19:08.917Z,83.6923
2023-03-29T18:20:10.453Z,78.0000
2023-03-29T18:21:11.948Z,80.6923
2023-03-29T18:22:13.463Z,68.3077
2023-03-29T18:23:14.998Z,60.1538
2023-03-29T18:24:16.518Z,64.6154
2023-03-29T18:25:18.033Z,71.8462
2023-03-29T18:26:19.562Z,58.4615
2023-03-29T18:27:21.115Z,55.1538
2023-03-29T18:28:22.653Z,51.8462
2023-03-29T18:29:24.142Z,46.1538
2023-03-29T18:30:25.647Z,41.0769
2023-03-29T18:31:27.278Z,38.0000
2023-03-29T18:32:28.716Z,16.3077
2023-03-29T18:33:30.234Z,6.7692
2023-03-29T18:34:31.733Z,14.0000
2023-03-29T18:35:33.325Z,20.0000
2023-03-29T18:36:34.780Z,38.6923
2023-03-29T18:37:36.328Z,43.3077
2023-03-29T18:38:41.443Z,48.4615
2023-03-29T18:39:48.951Z,57.6923
2023-03-29T18:40:44.203Z,75.7500
2023-03-29T18:43:17.959Z,65.0000
2023-03-29T18:44:18.607Z,48.2308
2023-03-29T18:45:20.171Z,38.4615
2023-03-29T18:46:22.603Z,32.4615
2023-03-29T18:47:23.407Z,40.0000
2023-03-29T18:48:24.686Z,45.4615
2023-03-29T18:49:26.202Z,54.3077
2023-03-29T18:50:29.449Z,40.2308
2023-03-29T18:51:29.222Z,30.6923
2023-03-29T18:52:32.364Z,30.2308
2023-03-29T18:53:37.034Z,32.3571
2023-03-29T18:54:38.549Z,41.2308
2023-03-29T18:55:40.126Z,27.0000
2023-03-29T18:56:42.028Z,30.6154
2023-03-29T18:57:43.099Z,24.0000
2023-03-29T18:58:44.628Z,33.3077
2023-03-29T18:59:46.134Z,33.9231
2023-03-29T19:00:47.632Z,30.4615
2023-03-29T19:01:53.266Z,41.7692
2023-03-29T19:02:53.867Z,20.1538
2023-03-29T19:03:55.774Z,36.9231
2023-03-29T19:04:56.281Z,26.9231
2023-03-29T19:05:57.503Z,62.9231
2023-03-29T19:06:58.741Z,79.4615
2023-03-29T19:07:59.988Z,74.0000
2023-03-29T19:09:01.242Z,52.1538
2023-03-29T19:10:02.486Z,70.0000
2023-03-29T19:11:03.756Z,79.6154
2023-03-29T19:12:04.969Z,84.3846
2023-03-29T19:13:06.241Z,70.0769
2023-03-29T19:14:07.515Z,43.6923
2023-03-29T19:15:08.940Z,41.3846
2023-03-29T19:16:10.536Z,40.0769
2023-03-29T19:17:11.984Z,57.4615
2023-03-29T19:18:13.630Z,74.3077
2023-03-29T19:19:14.999Z,95.0769
2023-03-29T19:20:16.555Z,101.2308
2023-03-29T19:21:18.045Z,88.5385
2023-03-29T19:22:19.590Z,65.9231
2023-03-29T19:23:21.092Z,54.7692
2023-03-29T19:24:22.642Z,41.0000
2023-03-29T19:25:24.130Z,43.8462
2023-03-29T19:26:25.653Z,28.3846
2023-03-29T19:27:27.196Z,40.7692
2023-03-29T19:28:28.716Z,74.4615
2023-03-29T19:29:30.271Z,86.2308
2023-03-29T19:30:31.735Z,97.5385
2023-03-29T19:31:33.324Z,91.6154
2023-03-29T19:32:34.803Z,80.0769
2023-03-29T19:33:36.318Z,59.0000
2023-03-29T19:34:37.828Z,39.0769
2023-03-29T19:35:39.349Z,43.1538
2023-03-29T19:36:40.858Z,46.6923
2023-03-29T19:37:42.376Z,34.0769
2023-03-29T19:38:44.010Z,48.6154
2023-03-29T19:39:45.448Z,41.9231
2023-03-29T19:40:46.958Z,42.1538
2023-03-29T19:41:48.454Z,48.3846
2023-03-29T19:42:50.036Z,47.5385
2023-03-29T19:43:51.563Z,52.6923
2023-03-29T19:44:53.062Z,50.5385
2023-03-29T19:45:54.748Z,48.8462
2023-03-29T19:46:56.150Z,47.7692
2023-03-29T19:47:57.648Z,49.5385
2023-03-29T19:48:59.127Z,49.2308
2023-03-29T19:50:00.664Z,48.6154
2023-03-29T19:51:02.177Z,35.5385
2023-03-29T19:52:03.729Z,41.7692
2023-03-29T19:53:05.218Z,38.9231
2023-03-29T19:54:06.795Z,74.5385
2023-03-29T19:55:08.318Z,61.0769
2023-03-29T19:56:09.809Z,67.7692
2023-03-29T19:57:11.326Z,68.3846
2023-03-29T19:58:12.906Z,77.5385
2023-03-29T19:59:14.360Z,87.2308
2023-03-29T20:00:15.907Z,76.4615
2023-03-29T20:01:17.406Z,72.0000
2023-03-29T20:02:18.937Z,81.7692
2023-03-29T20:03:20.471Z,73.6154
2023-03-29T20:04:22.033Z,65.2308
2023-03-29T20:05:23.509Z,50.5385
2023-03-29T20:06:25.039Z,36.4615
2023-03-29T20:07:26.545Z,38.5385
2023-03-29T20:08:28.075Z,39.6923
2023-03-29T20:09:29.632Z,33.6154
2023-03-29T20:10:31.136Z,34.0000
2023-03-29T20:11:32.637Z,48.0769
2023-03-29T20:12:34.191Z,41.5385
2023-03-29T20:13:38.718Z,29.9231
2023-03-29T20:14:37.217Z,32.0769
2023-03-29T20:15:38.736Z,39.6923
2023-03-29T20:16:40.316Z,44.4615
2023-03-29T20:17:41.801Z,67.1538
2023-03-29T20:18:43.303Z,61.3846
2023-03-29T20:19:44.860Z,69.6154
2023-03-29T20:20:46.362Z,55.4615
2023-03-29T20:21:47.970Z,56.0769
2023-03-29T20:22:53.696Z,65.8462
2023-03-29T20:23:51.104Z,61.0000
2023-03-29T20:24:52.456Z,73.9231
2023-03-29T20:25:54.012Z,70.6923
2023-03-29T20:26:55.495Z,50.4615
2023-03-29T20:27:57.007Z,65.7692
2023-03-29T20:28:58.529Z,51.9231
2023-03-29T20:30:00.061Z,50.8462
2023-03-29T20:31:01.936Z,47.2308
2023-03-29T20:32:03.151Z,44.4615
2023-03-29T20:33:04.712Z,48.9231
2023-03-29T20:34:06.154Z,47.1538
2023-03-29T20:35:07.691Z,52.6154
2023-03-29T20:36:09.349Z,58.0000
2023-03-29T20:37:10.898Z,62.2308
2023-03-29T20:38:12.269Z,65.2308
2023-03-29T20:39:13.908Z,71.6154
2023-03-29T20:40:15.304Z,69.3846
2023-03-29T20:41:16.822Z,71.9231
2023-03-29T20:42:18.804Z,74.8462
2023-03-29T20:43:19.905Z,68.6154
2023-03-29T20:44:21.859Z,71.4615
2023-03-29T20:45:22.917Z,68.3846
2023-03-29T20:46:24.552Z,91.0000
2023-03-29T20:47:25.973Z,93.0000
2023-03-29T20:48:27.491Z,95.5385
2023-03-29T20:49:29.164Z,99.0769
2023-03-29T20:50:30.588Z,96.3846
2023-03-29T20:51:32.185Z,101.7692
2023-03-29T20:52:33.597Z,101.6154
2023-03-29T20:53:35.121Z,138.1538
2023-03-29T20:54:36.715Z,134.8462
2023-03-29T20:55:38.171Z,134.0769
2023-03-29T20:56:40.715Z,128.3846
2023-03-29T20:57:41.203Z,128.5385
2023-03-29T20:58:42.694Z,149.2308
2023-03-29T20:59:44.253Z,143.7692
2023-03-29T21:00:45.761Z,135.8462
2023-03-29T21:01:47.306Z,128.6923
2023-03-29T21:02:48.867Z,118.7692
2023-03-29T21:03:50.387Z,109.5385
2023-03-29T21:04:51.963Z,120.0000
2023-03-29T21:05:53.449Z,116.2308
2023-03-29T21:06:54.914Z,117.7692
2023-03-29T21:07:56.425Z,116.4615
2023-03-29T21:08:57.942Z,117.6154
2023-03-29T21:09:59.465Z,122.0769
2023-03-29T21:11:01.140Z,122.3077
2023-03-29T21:12:02.599Z,126.6923
2023-03-29T21:13:04.041Z,116.2308
2023-03-29T21:14:05.576Z,110.7692
2023-03-29T21:15:07.084Z,113.8462
2023-03-29T21:16:08.662Z,105.0769
2023-03-29T21:17:10.186Z,93.6923
2023-03-29T21:18:11.726Z,82.4615
2023-03-29T21:19:13.169Z,78.7692
2023-03-29T21:20:14.721Z,77.6923
2023-03-29T21:21:16.252Z,83.0769
2023-03-29T21:22:22.608Z,84.0000
2023-03-29T21:23:26.055Z,74.6923
2023-03-29T21:24:29.520Z,76.2308
2023-03-29T21:25:29.615Z,75.3846
2023-03-29T21:26:30.525Z,71.6923
2023-03-29T21:27:31.555Z,73.0769
2023-03-29T21:28:33.153Z,71.9231
2023-03-29T21:29:35.434Z,84.2308
2023-03-29T21:30:36.752Z,120.1538
2023-03-29T21:31:37.276Z,114.3077
2023-03-29T21:32:37.783Z,98.5385
2023-03-29T21:33:40.801Z,89.8462
2023-03-29T21:34:41.452Z,89.3846
2023-03-29T21:35:42.447Z,91.4615
2023-03-29T21:36:43.835Z,96.2308
2023-03-29T21:37:45.334Z,94.0769
2023-03-29T21:38:46.943Z,88.5385
2023-03-29T21:39:49.518Z,105.0769
2023-03-29T21:40:50.022Z,113.4615
2023-03-29T21:41:51.422Z,120.5385
2023-03-29T21:42:52.945Z,107.8462
2023-03-29T21:43:54.475Z,100.3077
2023-03-29T21:44:56.012Z,92.8462
2023-03-29T21:45:57.613Z,81.9231
2023-03-29T21:46:59.133Z,92.0769
2023-03-29T21:48:00.647Z,90.1538
2023-03-29T21:49:02.162Z,85.5385
2023-03-29T21:50:03.652Z,84.9231
2023-03-29T21:51:05.446Z,90.4615
2023-03-29T21:52:06.683Z,103.6154
2023-03-29T21:53:08.693Z,85.2308
2023-03-29T21:54:10.267Z,80.5000
2023-03-29T22:06:32.735Z,104.6364
2023-03-29T22:07:24.827Z,56.0000
2023-03-29T22:08:26.439Z,65.9231
2023-03-29T22:09:27.887Z,76.6154
2023-03-29T22:10:29.432Z,81.0000
2023-03-29T22:11:31.866Z,87.4615
2023-03-29T22:12:32.473Z,89.9231
2023-03-29T22:13:33.981Z,83.1538
2023-03-29T22:14:36.243Z,88.0769
2023-03-29T22:15:37.009Z,94.0769
2023-03-29T22:16:40.956Z,87.1538
2023-03-29T22:17:41.513Z,88.0769
2023-03-29T22:18:42.765Z,95.0769
2023-03-29T22:19:43.946Z,103.8462
2023-03-29T22:20:45.197Z,96.0000
2023-03-29T22:21:46.423Z,95.3846
2023-03-29T22:22:47.808Z,90.0000
2023-03-29T22:23:49.187Z,102.6923
2023-03-29T22:24:51.888Z,110.7692
2023-03-29T22:25:52.237Z,116.6154
2023-03-29T22:26:53.742Z,117.4615
2023-03-29T22:27:55.312Z,101.0769
2023-03-29T22:28:57.378Z,105.0769
2023-03-29T22:29:58.348Z,117.3077
2023-03-29T22:31:00.288Z,107.8462
2023-03-29T22:32:01.474Z,121.0769
2023-03-29T22:33:02.984Z,120.6923
2023-03-29T22:34:04.503Z,107.3077
2023-03-29T22:35:05.942Z,118.3077
2023-03-29T22:36:07.457Z,117.9231
2023-03-29T22:37:08.978Z,102.7692
2023-03-29T22:38:10.503Z,111.2308
2023-03-29T22:39:12.038Z,113.6154
2023-03-29T22:40:13.558Z,111.4615
2023-03-29T22:41:15.071Z,101.2308
2023-03-29T22:42:16.609Z,109.3077
2023-03-29T22:43:18.140Z,116.6154
2023-03-29T22:44:19.640Z,121.6154
2023-03-29T22:45:21.206Z,119.2308
2023-03-29T22:46:22.777Z,106.0000
2023-03-29T22:47:24.240Z,111.7692
2023-03-29T22:48:25.709Z,115.3077
2023-03-29T22:49:27.257Z,119.0000
2023-03-29T22:50:28.769Z,103.6923
2023-03-29T22:51:30.301Z,123.8462
2023-03-29T22:52:31.852Z,117.6923
2023-03-29T22:53:33.376Z,119.2308
2023-03-29T22:54:34.864Z,117.0769
2023-03-29T22:55:36.375Z,121.4615
2023-03-29T22:56:37.997Z,130.2308
2023-03-29T22:57:39.472Z,134.1538
2023-03-29T22:58:40.988Z,142.1538
2023-03-29T22:59:42.493Z,126.5385
2023-03-29T23:00:44.019Z,126.3846
2023-03-29T23:01:45.514Z,114.0769
2023-03-29T23:02:47.031Z,122.0769
2023-03-29T23:03:48.595Z,118.8462
2023-03-29T23:04:50.222Z,117.7692
2023-03-29T23:05:51.587Z,112.1538
2023-03-29T23:06:53.193Z,104.1538
2023-03-29T23:07:54.624Z,117.4615
2023-03-29T23:08:56.170Z,112.0000
2023-03-29T23:09:57.723Z,117.2308
2023-03-29T23:10:59.188Z,115.8462
2023-03-29T23:12:00.854Z,103.9231
2023-03-29T23:13:02.224Z,114.5385
2023-03-29T23:14:03.744Z,120.9231
2023-03-29T23:15:05.304Z,118.4615
2023-03-29T23:16:06.889Z,100.2308
2023-03-29T23:17:08.307Z,91.3077
2023-03-29T23:18:09.852Z,92.7692
2023-03-29T23:19:11.347Z,91.3846
2023-03-29T23:20:12.938Z,95.8462
2023-03-29T23:21:14.397Z,91.3077
2023-03-29T23:22:15.951Z,84.6923
2023-03-29T23:23:17.438Z,82.2308
2023-03-29T23:24:19.323Z,85.3077
2023-03-29T23:25:20.490Z,92.7692
2023-03-29T23:26:22.003Z,91.0000
2023-03-29T23:27:23.576Z,80.0769
2023-03-29T23:28:25.069Z,97.1538
2023-03-29T23:29:26.567Z,80.5385
2023-03-29T23:30:28.108Z,96.0769
2023-03-29T23:31:29.657Z,81.9231
2023-03-29T23:32:31.165Z,95.6923
2023-03-29T23:33:32.689Z,92.3077
2023-03-29T23:34:34.185Z,78.6923
2023-03-29T23:35:35.773Z,87.8462
2023-03-29T23:36:37.233Z,94.2308
2023-03-29T23:37:38.799Z,93.8462
2023-03-29T23:38:40.262Z,94.9231
2023-03-29T23:39:41.826Z,100.3846
2023-03-29T23:40:43.316Z,92.3077
2023-03-29T23:41:44.915Z,90.4615
2023-03-29T23:42:46.384Z,97.6154
2023-03-29T23:43:47.913Z,96.0769
2023-03-29T23:44:49.402Z,98.0000
2023-03-29T23:45:51.083Z,91.6923
2023-03-29T23:46:52.541Z,80.9231
2023-03-29T23:47:54.025Z,88.8462
2023-03-29T23:48:55.554Z,93.3077
2023-03-29T23:49:57.016Z,88.3846
2023-03-29T23:50:59.616Z,86.0000
2023-03-29T23:52:00.077Z,84.2308
2023-03-29T23:53:01.560Z,84.3077
2023-03-29T23:54:03.120Z,85.6923
2023-03-29T23:55:04.595Z,82.6154
2023-03-29T23:56:06.139Z,81.6154
2023-03-29T23:57:07.757Z,84.2308
2023-03-29T23:58:09.156Z,86.0000
2023-03-29T23:59:10.741Z,85.0769
